createdAt,value
2019-05-16T00:00:49.583Z,0.00
2019-05-16T00:01:48.982Z,0.00
2019-05-16T00:02:48.974Z,0.00
2019-05-16T00:03:49.160Z,0.00
2019-05-16T00:04:48.943Z,0.00
2019-05-16T00:05:54.144Z,0.00
2019-05-16T00:06:49.919Z,0.00
2019-05-16T00:07:49.296Z,0.00
2019-05-16T00:08:48.899Z,0.00
2019-05-16T00:09:48.889Z,0.00
2019-05-16T00:10:48.874Z,0.00
2019-05-16T00:11:48.919Z,0.00
2019-05-16T00:12:48.866Z,0.00
2019-05-16T00:13:49.078Z,0.00
2019-05-16T00:14:49.089Z,0.00
2019-05-16T00:15:48.824Z,0.00
2019-05-16T00:16:48.807Z,0.00
2019-05-16T00:17:49.078Z,0.00
2019-05-16T00:18:48.786Z,0.00
2019-05-16T00:19:48.772Z,0.00
2019-05-16T00:20:49.235Z,0.00
2019-05-16T00:21:48.888Z,0.00
2019-05-16T00:22:48.750Z,0.00
2019-05-16T00:23:48.824Z,0.00
2019-05-16T00:24:48.866Z,0.00
2019-05-16T00:25:48.707Z,0.00
2019-05-16T00:26:48.725Z,0.00
2019-05-16T00:27:48.691Z,0.00
2019-05-16T00:28:48.724Z,0.00
2019-05-16T00:29:48.874Z,0.00
2019-05-16T00:30:48.856Z,0.00
2019-05-16T00:31:48.761Z,0.00
2019-05-16T00:32:48.635Z,0.00
2019-05-16T00:33:48.878Z,0.00
2019-05-16T00:34:48.602Z,0.00
2019-05-16T00:36:01.064Z,0.00
2019-05-16T00:36:49.582Z,0.00
2019-05-16T00:37:48.670Z,0.00
2019-05-16T00:38:48.691Z,0.00
2019-05-16T00:39:48.552Z,0.00
2019-05-16T00:40:48.794Z,0.00
2019-05-16T00:41:48.523Z,0.00
2019-05-16T00:42:49.312Z,0.00
2019-05-16T00:43:48.772Z,0.00
2019-05-16T00:44:48.489Z,0.00
2019-05-16T00:45:48.769Z,0.00
2019-05-16T00:46:48.687Z,0.00
2019-05-16T00:47:48.464Z,0.00
2019-05-16T00:48:48.756Z,0.00
2019-05-16T00:49:48.433Z,0.00
2019-05-16T00:50:48.423Z,0.00
2019-05-16T00:51:48.414Z,0.00
2019-05-16T00:52:48.917Z,0.00
2019-05-16T00:53:48.497Z,0.00
2019-05-16T00:54:48.692Z,0.00
2019-05-16T00:55:48.364Z,0.00
2019-05-16T00:56:48.773Z,0.00
2019-05-16T00:57:48.392Z,0.00
2019-05-16T00:58:48.535Z,0.00
2019-05-16T00:59:48.593Z,0.00
2019-05-16T01:00:49.943Z,0.00
2019-05-16T01:01:50.032Z,0.00
2019-05-16T01:02:48.686Z,0.00
2019-05-16T01:03:48.495Z,0.00
2019-05-16T01:04:48.733Z,0.00
2019-05-16T01:05:48.287Z,0.00
2019-05-16T01:06:48.501Z,0.00
2019-05-16T01:07:48.270Z,0.00
2019-05-16T01:08:48.910Z,0.00
2019-05-16T01:09:48.787Z,0.00
2019-05-16T01:10:51.344Z,0.00
2019-05-16T01:11:48.623Z,0.00
2019-05-16T01:12:48.217Z,0.00
2019-05-16T01:13:48.723Z,0.00
2019-05-16T01:14:48.149Z,0.00
2019-05-16T01:15:48.575Z,0.00
2019-05-16T01:16:48.792Z,0.00
2019-05-16T01:17:48.484Z,0.00
2019-05-16T01:18:48.755Z,0.00
2019-05-16T01:19:48.511Z,0.00
2019-05-16T01:20:48.361Z,0.00
2019-05-16T01:21:48.426Z,0.00
2019-05-16T01:22:49.000Z,0.00
2019-05-16T01:23:48.316Z,0.00
2019-05-16T01:24:49.242Z,0.00
2019-05-16T01:25:48.566Z,0.00
2019-05-16T01:26:48.460Z,0.00
2019-05-16T01:27:48.000Z,0.00
2019-05-16T01:28:48.488Z,0.00
2019-05-16T01:29:47.978Z,0.00
2019-05-16T01:30:48.788Z,0.00
2019-05-16T01:31:48.360Z,0.00
2019-05-16T01:32:49.203Z,0.00
2019-05-16T01:33:47.955Z,0.00
2019-05-16T01:34:48.382Z,0.00
2019-05-16T01:35:47.911Z,0.00
2019-05-16T01:36:48.594Z,0.00
2019-05-16T01:37:48.748Z,0.00
2019-05-16T01:38:48.206Z,0.00
2019-05-16T01:39:48.389Z,0.00
2019-05-16T01:40:49.091Z,0.00
2019-05-16T01:41:48.137Z,0.00
2019-05-16T01:42:48.955Z,0.00
2019-05-16T01:43:48.372Z,0.00
2019-05-16T01:44:48.680Z,0.00
2019-05-16T01:45:48.646Z,0.00
2019-05-16T01:46:48.133Z,0.00
2019-05-16T01:47:48.341Z,0.00
2019-05-16T01:48:48.501Z,0.00
2019-05-16T01:49:48.729Z,0.00
2019-05-16T01:50:48.229Z,0.00
2019-05-16T01:51:48.429Z,0.00
2019-05-16T01:52:48.766Z,0.00
2019-05-16T01:53:48.793Z,0.00
2019-05-16T01:54:48.178Z,0.00
2019-05-16T01:55:48.809Z,0.00
2019-05-16T01:56:48.087Z,0.00
2019-05-16T01:57:48.206Z,0.00
2019-05-16T01:58:49.041Z,0.00
2019-05-16T01:59:48.571Z,0.00
2019-05-16T02:00:58.131Z,0.00
2019-05-16T02:01:48.615Z,0.00
2019-05-16T02:02:48.745Z,0.00
2019-05-16T02:03:48.167Z,0.00
2019-05-16T02:04:48.537Z,0.00
2019-05-16T02:05:48.104Z,0.00
2019-05-16T02:06:53.722Z,0.00
2019-05-16T02:07:48.559Z,0.00
2019-05-16T02:08:48.671Z,0.00
2019-05-16T02:09:47.758Z,0.00
2019-05-16T02:10:48.062Z,0.00
2019-05-16T02:11:48.124Z,0.00
2019-05-16T02:12:49.007Z,0.00
2019-05-16T02:13:48.528Z,0.00
2019-05-16T02:14:48.114Z,0.00
2019-05-16T02:15:48.853Z,0.00
2019-05-16T02:16:47.793Z,0.00
2019-05-16T06:24:30.538Z,7436.00
2019-05-16T06:25:31.465Z,8736.00
2019-05-16T06:26:30.371Z,10192.00
2019-05-16T06:27:30.364Z,11800.00
2019-05-16T06:28:30.759Z,10124.00
2019-05-16T06:29:30.982Z,11692.00
2019-05-16T06:30:30.578Z,11040.00
2019-05-16T06:31:31.332Z,12096.00
2019-05-16T06:32:30.434Z,13504.00
2019-05-16T06:33:30.545Z,8632.00
2019-05-16T06:34:30.295Z,7952.00
2019-05-16T06:35:30.063Z,4976.00
2019-05-16T06:36:30.578Z,6028.00
2019-05-16T06:37:30.926Z,5164.00
2019-05-16T06:38:30.107Z,4244.00
2019-05-16T06:39:41.277Z,3772.00
2019-05-16T06:40:30.788Z,3184.00
2019-05-16T06:41:30.448Z,2820.00
2019-05-16T06:42:30.090Z,2596.00
2019-05-16T06:43:30.232Z,2464.00
2019-05-16T06:44:30.847Z,2416.00
2019-05-16T06:45:31.982Z,2356.00
2019-05-16T06:46:30.692Z,2312.00
2019-05-16T06:47:30.520Z,2288.00
2019-05-16T06:48:30.340Z,2320.00
2019-05-16T06:49:30.371Z,2404.00
2019-05-16T06:50:29.841Z,2500.00
2019-05-16T06:51:30.586Z,2612.00
2019-05-16T06:52:30.155Z,2708.00
2019-05-16T06:53:29.989Z,2728.00
2019-05-16T06:54:29.983Z,2712.00
2019-05-16T06:55:29.719Z,2688.00
2019-05-16T06:56:30.884Z,2660.00
2019-05-16T06:57:30.212Z,2624.00
2019-05-16T06:58:30.272Z,2636.00
2019-05-16T06:59:29.810Z,2696.00
2019-05-16T07:00:30.232Z,2808.00
2019-05-16T07:01:29.808Z,2964.00
2019-05-16T07:02:33.670Z,3616.00
2019-05-16T07:03:30.851Z,3112.00
2019-05-16T07:04:30.514Z,3124.00
2019-05-16T07:05:29.990Z,3820.00
2019-05-16T07:06:48.499Z,6084.00
2019-05-16T07:07:30.847Z,7820.00
2019-05-16T07:08:30.983Z,6048.00
2019-05-16T07:09:30.127Z,7744.00
2019-05-16T07:10:30.639Z,14076.00
2019-05-16T07:11:30.653Z,27520.00
2019-05-16T07:12:33.379Z,35136.00
2019-05-16T07:13:30.454Z,40992.00
2019-05-16T07:14:31.312Z,16768.00
2019-05-16T07:15:29.837Z,5920.00
2019-05-16T07:16:29.990Z,6252.00
2019-05-16T07:17:30.659Z,7268.00
2019-05-16T07:18:30.943Z,9124.00
2019-05-16T07:19:30.176Z,12876.00
2019-05-16T07:20:30.161Z,16512.00
2019-05-16T07:21:31.251Z,21440.00
2019-05-16T07:22:31.232Z,12628.00
2019-05-16T07:23:29.863Z,14552.00
2019-05-16T07:24:30.536Z,10736.00
2019-05-16T07:25:30.083Z,10584.00
2019-05-16T07:26:30.971Z,10560.00
2019-05-16T07:27:30.921Z,10452.00
2019-05-16T07:28:30.055Z,10180.00
2019-05-16T07:29:30.853Z,9812.00
2019-05-16T07:30:30.297Z,9516.00
2019-05-16T07:31:30.051Z,9496.00
2019-05-16T07:32:30.255Z,9564.00
2019-05-16T07:33:31.163Z,9812.00
2019-05-16T07:34:31.191Z,10188.00
2019-05-16T07:35:30.781Z,9244.00
2019-05-16T07:36:31.338Z,9168.00
2019-05-16T07:37:31.448Z,9232.00
2019-05-16T07:38:30.966Z,9292.00
2019-05-16T07:39:30.740Z,9172.00
2019-05-16T07:40:30.852Z,9204.00
2019-05-16T07:41:31.079Z,8980.00
2019-05-16T07:42:30.774Z,8916.00
2019-05-16T07:43:30.852Z,8708.00
2019-05-16T07:44:31.054Z,8268.00
2019-05-16T07:45:30.880Z,8228.00
2019-05-16T07:46:31.349Z,8244.00
2019-05-16T07:47:30.967Z,8512.00
2019-05-16T07:48:31.598Z,8840.00
2019-05-16T07:49:30.466Z,9360.00
2019-05-16T07:50:30.023Z,9164.00
2019-05-16T07:51:31.064Z,10644.00
2019-05-16T07:52:35.496Z,10456.00
2019-05-16T07:53:32.967Z,10072.00
2019-05-16T07:54:34.034Z,9344.00
2019-05-16T07:55:30.856Z,8708.00
2019-05-16T07:56:31.029Z,8384.00
2019-05-16T07:57:30.643Z,7940.00
2019-05-16T07:58:31.327Z,7552.00
2019-05-16T07:59:29.935Z,7504.00
2019-05-16T08:00:48.468Z,7652.00
2019-05-16T08:01:30.654Z,7796.00
2019-05-16T08:02:31.129Z,7684.00
2019-05-16T08:03:30.339Z,7556.00
2019-05-16T08:04:30.361Z,7216.00
2019-05-16T08:05:29.910Z,6848.00
2019-05-16T08:06:31.091Z,6900.00
2019-05-16T08:07:33.176Z,7260.00
2019-05-16T08:08:31.474Z,7632.00
2019-05-16T08:09:30.625Z,8144.00
2019-05-16T08:10:38.096Z,8660.00
2019-05-16T08:11:30.413Z,9100.00
2019-05-16T08:12:32.819Z,9548.00
2019-05-16T08:13:30.858Z,10520.00
2019-05-16T08:14:30.432Z,12312.00
2019-05-16T08:15:30.414Z,13800.00
2019-05-16T08:16:30.627Z,14524.00
2019-05-16T08:17:31.294Z,14032.00
2019-05-16T08:18:30.259Z,14104.00
2019-05-16T08:19:30.561Z,13676.00
2019-05-16T08:20:31.239Z,12904.00
2019-05-16T08:21:30.847Z,11384.00
2019-05-16T08:22:30.628Z,10476.00
2019-05-16T08:23:30.553Z,10068.00
2019-05-16T08:24:30.968Z,9808.00
2019-05-16T08:25:31.230Z,9608.00
2019-05-16T08:26:32.368Z,9716.00
2019-05-16T08:28:30.850Z,10924.00
2019-05-16T08:29:31.616Z,11496.00
2019-05-16T08:30:31.609Z,12232.00
2019-05-16T08:31:31.702Z,13024.00
2019-05-16T08:32:31.243Z,13904.00
2019-05-16T08:33:31.198Z,15372.00
2019-05-16T08:34:31.966Z,15380.00
2019-05-16T08:35:31.453Z,15884.00
2019-05-16T08:36:30.729Z,13728.00
2019-05-16T08:37:41.351Z,11284.00
2019-05-16T08:38:30.892Z,10136.00
2019-05-16T08:39:31.042Z,9764.00
2019-05-16T08:40:31.339Z,9516.00
2019-05-16T08:41:31.273Z,9056.00
2019-05-16T08:42:32.143Z,8464.00
2019-05-16T08:43:31.298Z,7812.00
2019-05-16T08:44:31.664Z,7168.00
2019-05-16T08:45:31.361Z,6664.00
2019-05-16T08:46:31.923Z,6152.00
2019-05-16T08:47:31.860Z,5752.00
2019-05-16T08:48:31.438Z,5476.00
2019-05-16T08:49:30.702Z,5436.00
2019-05-16T08:50:10.797Z,10516.00
2019-05-16T08:50:28.335Z,5572.00
2019-05-16T08:51:32.805Z,5368.00
2019-05-16T08:52:31.504Z,5012.00
2019-05-16T08:53:31.411Z,4672.00
2019-05-16T08:54:31.644Z,4400.00
2019-05-16T08:55:31.164Z,4288.00
2019-05-16T08:56:31.463Z,4264.00
2019-05-16T08:57:32.529Z,4228.00
2019-05-16T08:58:34.363Z,4176.00
2019-05-16T08:59:33.577Z,4076.00
2019-05-16T09:00:33.117Z,4048.00
2019-05-16T09:01:34.477Z,4000.00
2019-05-16T09:02:36.279Z,3984.00
2019-05-16T09:03:32.068Z,3972.00
2019-05-16T09:04:33.319Z,3896.00
2019-05-16T09:05:31.467Z,3876.00
2019-05-16T09:06:31.662Z,3844.00
2019-05-16T09:07:31.598Z,3796.00
2019-05-16T09:08:28.144Z,3764.00
2019-05-16T09:09:41.663Z,3852.00
2019-05-16T09:10:55.757Z,4236.00
2019-05-16T09:11:39.131Z,4664.00
2019-05-16T09:12:29.092Z,4876.00
2019-05-16T09:13:28.100Z,5032.00
2019-05-16T09:14:31.885Z,5264.00
2019-05-16T09:15:29.055Z,5468.00
2019-05-16T09:16:28.058Z,5608.00
2019-05-16T09:17:28.044Z,5644.00
2019-05-16T09:18:28.980Z,5700.00
2019-05-16T09:19:28.011Z,5884.00
2019-05-16T09:20:28.262Z,6344.00
2019-05-16T09:21:27.997Z,6748.00
2019-05-16T09:22:28.359Z,6884.00
2019-05-16T09:23:27.971Z,6924.00
2019-05-16T09:24:27.981Z,7160.00
2019-05-16T09:25:27.948Z,7468.00
2019-05-16T09:26:28.028Z,7348.00
2019-05-16T09:27:27.927Z,6956.00
2019-05-16T09:28:28.466Z,6552.00
2019-05-16T09:29:27.899Z,6640.00
2019-05-16T09:30:27.921Z,6692.00
2019-05-16T09:31:27.881Z,6816.00
2019-05-16T09:32:28.154Z,6976.00
2019-05-16T09:33:27.861Z,7268.00
2019-05-16T09:34:28.444Z,7540.00
2019-05-16T09:35:28.146Z,7988.00
2019-05-16T09:36:28.297Z,8760.00
2019-05-16T09:37:27.818Z,9476.00
2019-05-16T09:38:30.381Z,10092.00
2019-05-16T09:39:28.105Z,10552.00
2019-05-16T09:40:27.989Z,11184.00
2019-05-16T09:41:46.270Z,11680.00
2019-05-16T09:42:28.766Z,12108.00
2019-05-16T09:43:28.287Z,12120.00
2019-05-16T09:44:27.734Z,12064.00
2019-05-16T09:45:27.721Z,12284.00
2019-05-16T09:46:27.731Z,12436.00
2019-05-16T09:47:28.392Z,12828.00
2019-05-16T09:48:30.538Z,12568.00
2019-05-16T09:49:29.306Z,12624.00
2019-05-16T09:50:27.664Z,12668.00
2019-05-16T09:51:27.654Z,12416.00
2019-05-16T09:52:27.650Z,12208.00
2019-05-16T09:53:27.978Z,12220.00
2019-05-16T09:54:27.618Z,12016.00
2019-05-16T09:55:27.607Z,11824.00
2019-05-16T09:56:27.594Z,11848.00
2019-05-16T09:57:27.940Z,11928.00
2019-05-16T09:58:28.096Z,11912.00
2019-05-16T09:59:27.567Z,12036.00
2019-05-16T10:00:27.549Z,12708.00
2019-05-16T10:01:27.774Z,14660.00
2019-05-16T10:02:27.615Z,19232.00
2019-05-16T10:03:27.520Z,38208.00
2019-05-16T10:04:27.506Z,26496.00
2019-05-16T10:05:27.506Z,25056.00
2019-05-16T10:06:27.744Z,27840.00
2019-05-16T10:07:28.464Z,35168.00
2019-05-16T10:08:27.465Z,24416.00
2019-05-16T10:09:41.162Z,63296.00
2019-05-16T10:10:28.441Z,23616.00
2019-05-16T10:11:31.005Z,24096.00
2019-05-16T10:12:27.425Z,28960.00
2019-05-16T10:13:27.994Z,50528.00
2019-05-16T10:14:27.428Z,29568.00
2019-05-16T10:15:27.389Z,33824.00
2019-05-16T10:16:27.639Z,28768.00
2019-05-16T10:17:27.456Z,34080.00
2019-05-16T10:18:27.959Z,33664.00
2019-05-16T10:19:27.687Z,37120.00
2019-05-16T10:20:27.547Z,44288.00
2019-05-16T10:21:27.380Z,65536.00
2019-05-16T10:22:27.406Z,53856.00
2019-05-16T10:23:28.433Z,43104.00
2019-05-16T10:24:27.286Z,33344.00
2019-05-16T10:25:27.878Z,28896.00
2019-05-16T10:26:27.933Z,30432.00
2019-05-16T10:27:27.290Z,30752.00
2019-05-16T10:28:27.814Z,37056.00
2019-05-16T10:29:27.623Z,30240.00
2019-05-16T10:30:27.220Z,32160.00
2019-05-16T10:31:41.607Z,49152.00
2019-05-16T10:32:28.218Z,67648.00
2019-05-16T10:33:27.726Z,97760.00
2019-05-16T10:34:27.175Z,56480.00
2019-05-16T10:35:29.970Z,38336.00
2019-05-16T10:36:28.183Z,96096.00
2019-05-16T10:37:27.168Z,43328.00
2019-05-16T10:38:28.544Z,47776.00
2019-05-16T10:39:27.125Z,43520.00
2019-05-16T10:40:27.500Z,32480.00
2019-05-16T10:41:27.105Z,29504.00
2019-05-16T10:42:28.937Z,30112.00
2019-05-16T10:43:27.087Z,32096.00
2019-05-16T10:44:28.052Z,27040.00
2019-05-16T10:45:27.376Z,27264.00
2019-05-16T10:46:27.180Z,28352.00
2019-05-16T10:47:31.009Z,27712.00
2019-05-16T10:48:27.237Z,26432.00
2019-05-16T10:49:36.942Z,31264.00
2019-05-16T10:50:28.085Z,31872.00
2019-05-16T10:51:27.146Z,33120.00
2019-05-16T10:52:27.176Z,32352.00
2019-05-16T10:53:57.107Z,33760.00
2019-05-16T10:54:28.097Z,90272.00
2019-05-16T10:55:27.761Z,65120.00
2019-05-16T10:56:26.938Z,91616.00
2019-05-16T10:57:29.639Z,66656.00
2019-05-16T10:58:36.414Z,102496.00
2019-05-16T11:00:57.606Z,73568.00
2019-05-16T11:01:31.045Z,51008.00
2019-05-16T11:02:27.566Z,48192.00
2019-05-16T11:03:27.633Z,84800.00
2019-05-16T11:04:37.625Z,65824.00
2019-05-16T11:05:33.711Z,48864.00
2019-05-16T11:06:29.286Z,25216.00
2019-05-16T11:07:29.610Z,37280.00
2019-05-16T11:08:26.824Z,47744.00
2019-05-16T11:09:26.802Z,42208.00
2019-05-16T11:10:29.564Z,49248.00
2019-05-16T11:11:27.489Z,49664.00
2019-05-16T11:12:45.321Z,44704.00
2019-05-16T11:13:28.207Z,63808.00
2019-05-16T11:14:28.102Z,77664.00
2019-05-16T11:15:27.822Z,48800.00
2019-05-16T11:16:27.442Z,57632.00
2019-05-16T11:17:27.874Z,82336.00
2019-05-16T11:18:27.338Z,95584.00
2019-05-16T11:19:28.234Z,93216.00
2019-05-16T11:20:27.075Z,92544.00
2019-05-16T11:21:26.987Z,26176.00
2019-05-16T11:22:29.535Z,40576.00
2019-05-16T11:23:30.941Z,71744.00
2019-05-16T11:24:29.012Z,98976.00
2019-05-16T11:25:31.815Z,72192.00
2019-05-16T11:26:30.247Z,45600.00
2019-05-16T11:27:26.617Z,56544.00
2019-05-16T11:28:26.651Z,85312.00
2019-05-16T11:29:26.596Z,104224.00
2019-05-16T11:30:28.089Z,103072.00
2019-05-16T11:31:26.881Z,97632.00
2019-05-16T11:32:27.068Z,95552.00
2019-05-16T11:33:28.190Z,98784.00
2019-05-16T11:34:26.783Z,97792.00
2019-05-16T11:35:27.292Z,99904.00
2019-05-16T11:36:26.878Z,101056.00
2019-05-16T11:37:27.907Z,89568.00
2019-05-16T11:38:26.513Z,97280.00
2019-05-16T11:39:26.493Z,99360.00
2019-05-16T11:40:26.485Z,95200.00
2019-05-16T11:41:27.534Z,88192.00
2019-05-16T11:42:27.986Z,83680.00
2019-05-16T11:43:27.835Z,86816.00
2019-05-16T11:44:28.721Z,89952.00
2019-05-16T11:45:27.183Z,93504.00
2019-05-16T11:46:28.213Z,99104.00
2019-05-16T11:47:27.223Z,95360.00
2019-05-16T11:48:29.516Z,94976.00
2019-05-16T11:49:27.544Z,97568.00
2019-05-16T11:50:28.028Z,92832.00
2019-05-16T11:51:27.182Z,91040.00
2019-05-16T11:52:26.378Z,98560.00
2019-05-16T11:53:28.180Z,100288.00
2019-05-16T11:54:26.669Z,97088.00
2019-05-16T11:55:33.785Z,96352.00
2019-05-16T11:56:27.334Z,97728.00
2019-05-16T11:57:26.325Z,95072.00
2019-05-16T11:58:26.698Z,96416.00
2019-05-16T11:59:26.315Z,96064.00
2019-05-16T12:00:30.115Z,92960.00
2019-05-16T12:01:27.620Z,31168.00
2019-05-16T12:02:27.875Z,25504.00
2019-05-16T12:03:28.154Z,64896.00
2019-05-16T12:04:28.069Z,72192.00
2019-05-16T12:05:27.103Z,99264.00
2019-05-16T12:06:26.798Z,102208.00
2019-05-16T12:07:33.405Z,105792.00
2019-05-16T12:08:27.214Z,80960.00
2019-05-16T12:09:33.365Z,31712.00
2019-05-16T12:10:27.203Z,19232.00
2019-05-16T12:11:27.495Z,19840.00
2019-05-16T12:12:27.150Z,19968.00
2019-05-16T12:13:31.779Z,20032.00
2019-05-16T12:14:27.317Z,20096.00
2019-05-16T12:15:27.337Z,21312.00
2019-05-16T12:16:27.531Z,41216.00
2019-05-16T12:17:28.021Z,80640.00
2019-05-16T12:18:26.543Z,89440.00
2019-05-16T12:19:34.731Z,92800.00
2019-05-16T12:20:27.492Z,95680.00
2019-05-16T12:21:27.481Z,100864.00
2019-05-16T12:22:26.827Z,101376.00
2019-05-16T12:23:27.609Z,71104.00
2019-05-16T12:24:33.144Z,99456.00
2019-05-16T12:25:27.432Z,71360.00
2019-05-16T12:26:28.144Z,29888.00
2019-05-16T12:27:32.783Z,22592.00
2019-05-16T12:28:27.214Z,20416.00
2019-05-16T12:29:28.092Z,22336.00
2019-05-16T12:30:25.998Z,19072.00
2019-05-16T12:31:25.987Z,18336.00
2019-05-16T12:32:27.651Z,19872.00
2019-05-16T12:33:27.446Z,25824.00
2019-05-16T12:34:25.967Z,19744.00
2019-05-16T12:35:27.725Z,18656.00
2019-05-16T12:36:26.796Z,17312.00
2019-05-16T12:37:27.606Z,16256.00
2019-05-16T12:38:27.639Z,14712.00
2019-05-16T12:39:26.851Z,13672.00
2019-05-16T12:40:26.847Z,13132.00
2019-05-16T12:41:28.520Z,12776.00
2019-05-16T12:42:27.086Z,12940.00
2019-05-16T12:43:44.147Z,15564.00
2019-05-16T12:44:27.028Z,13932.00
2019-05-16T12:45:27.543Z,12740.00
2019-05-16T12:46:27.178Z,13520.00
2019-05-16T12:47:25.826Z,17024.00
2019-05-16T12:48:25.833Z,16100.00
2019-05-16T12:49:25.820Z,14688.00
2019-05-16T12:50:28.734Z,13264.00
2019-05-16T12:51:26.439Z,14728.00
2019-05-16T12:52:27.070Z,15912.00
2019-05-16T12:53:31.682Z,16864.00
2019-05-16T12:54:27.566Z,17504.00
2019-05-16T12:55:27.121Z,18816.00
2019-05-16T12:56:27.218Z,20256.00
2019-05-16T12:57:27.709Z,21792.00
2019-05-16T12:58:37.534Z,20448.00
2019-05-16T12:59:26.836Z,18240.00
2019-05-16T13:00:27.622Z,16608.00
2019-05-16T13:01:30.480Z,15272.00
2019-05-16T13:02:27.329Z,14236.00
2019-05-16T13:03:27.751Z,13256.00
2019-05-16T13:04:27.924Z,12604.00
2019-05-16T13:05:26.963Z,12404.00
2019-05-16T13:06:27.767Z,12500.00
2019-05-16T13:07:26.938Z,12880.00
2019-05-16T13:08:26.806Z,13388.00
2019-05-16T13:09:26.525Z,13936.00
2019-05-16T13:10:26.981Z,14408.00
2019-05-16T13:11:27.009Z,14676.00
2019-05-16T13:12:27.070Z,14728.00
2019-05-16T13:13:27.766Z,14536.00
2019-05-16T13:14:27.950Z,14360.00
2019-05-16T13:15:27.331Z,14164.00
2019-05-16T13:16:28.075Z,13824.00
2019-05-16T13:17:27.497Z,13476.00
2019-05-16T13:18:27.561Z,13404.00
2019-05-16T13:19:31.896Z,13644.00
2019-05-16T13:20:26.795Z,13768.00
2019-05-16T13:21:27.616Z,13936.00
2019-05-16T13:22:27.573Z,13568.00
2019-05-16T13:23:26.924Z,12808.00
2019-05-16T13:24:27.834Z,12656.00
2019-05-16T13:25:27.300Z,12728.00
2019-05-16T13:26:25.413Z,13640.00
2019-05-16T13:27:25.412Z,15212.00
2019-05-16T13:28:25.387Z,14624.00
2019-05-16T13:29:27.464Z,15132.00
2019-05-16T13:30:26.852Z,15968.00
2019-05-16T13:31:28.589Z,16160.00
2019-05-16T13:32:27.070Z,16672.00
2019-05-16T13:33:27.129Z,17312.00
2019-05-16T13:34:28.077Z,18592.00
2019-05-16T13:35:27.050Z,18528.00
2019-05-16T13:36:27.196Z,18592.00
2019-05-16T13:37:27.640Z,18624.00
2019-05-16T13:38:27.902Z,18656.00
2019-05-16T13:39:27.504Z,18912.00
2019-05-16T13:40:27.480Z,19296.00
2019-05-16T13:41:27.056Z,19360.00
2019-05-16T13:42:27.200Z,19712.00
2019-05-16T13:43:26.997Z,20768.00
2019-05-16T13:44:27.482Z,21440.00
2019-05-16T13:45:27.185Z,19584.00
2019-05-16T13:46:26.544Z,21600.00
2019-05-16T13:47:26.867Z,21696.00
2019-05-16T13:48:26.769Z,21248.00
2019-05-16T13:49:26.821Z,20768.00
2019-05-16T13:50:27.308Z,25440.00
2019-05-16T13:51:26.644Z,59360.00
2019-05-16T13:52:28.090Z,82976.00
2019-05-16T13:53:27.154Z,73248.00
2019-05-16T13:54:26.951Z,50560.00
2019-05-16T13:55:27.146Z,24224.00
2019-05-16T13:56:27.313Z,23328.00
2019-05-16T13:57:28.036Z,24000.00
2019-05-16T13:58:28.103Z,23808.00
2019-05-16T13:59:27.839Z,18976.00
2019-05-16T14:00:27.754Z,17120.00
2019-05-16T14:01:27.627Z,21056.00
2019-05-16T14:02:26.681Z,19552.00
2019-05-16T14:03:27.516Z,21024.00
2019-05-16T14:04:26.418Z,15284.00
2019-05-16T14:05:26.768Z,14924.00
2019-05-16T14:06:24.978Z,14476.00
2019-05-16T14:07:24.970Z,13924.00
2019-05-16T14:08:26.816Z,13928.00
2019-05-16T14:09:26.834Z,12704.00
2019-05-16T14:10:29.288Z,10120.00
2019-05-16T14:11:24.924Z,9760.00
2019-05-16T14:12:26.786Z,9600.00
2019-05-16T14:13:24.914Z,10180.00
2019-05-16T14:14:34.779Z,11216.00
2019-05-16T14:15:27.034Z,11672.00
2019-05-16T14:16:26.921Z,12412.00
2019-05-16T14:17:27.323Z,13792.00
2019-05-16T14:18:27.183Z,11476.00
2019-05-16T14:19:27.322Z,9784.00
2019-05-16T14:20:24.828Z,9924.00
2019-05-16T14:21:24.842Z,11436.00
2019-05-16T14:22:27.605Z,14860.00
2019-05-16T14:23:28.091Z,16544.00
2019-05-16T14:24:27.934Z,13772.00
2019-05-16T14:25:24.790Z,16672.00
2019-05-16T14:26:24.879Z,15872.00
2019-05-16T14:27:26.883Z,17088.00
2019-05-16T14:28:25.710Z,16288.00
2019-05-16T14:29:24.729Z,15000.00
2019-05-16T14:30:24.765Z,22784.00
2019-05-16T14:31:24.730Z,14228.00
2019-05-16T14:32:24.706Z,13860.00
2019-05-16T14:33:24.687Z,15088.00
2019-05-16T14:34:27.659Z,13556.00
2019-05-16T14:35:26.676Z,12316.00
2019-05-16T14:36:27.808Z,12336.00
2019-05-16T14:37:26.779Z,14388.00
2019-05-16T14:38:26.964Z,17824.00
2019-05-16T14:39:28.078Z,11720.00
2019-05-16T14:40:24.608Z,10128.00
2019-05-16T14:41:24.638Z,9236.00
2019-05-16T14:42:27.814Z,8936.00
2019-05-16T14:43:27.024Z,9148.00
2019-05-16T14:44:24.566Z,9444.00
2019-05-16T14:45:26.377Z,9780.00
2019-05-16T14:46:27.185Z,10256.00
2019-05-16T14:47:26.975Z,10368.00
2019-05-16T14:48:24.564Z,9232.00
2019-05-16T14:49:24.513Z,8604.00
2019-05-16T14:50:27.321Z,8460.00
2019-05-16T14:51:27.283Z,8440.00
2019-05-16T14:52:26.990Z,8752.00
2019-05-16T14:53:28.197Z,9292.00
2019-05-16T14:54:26.758Z,9540.00
2019-05-16T14:55:27.262Z,9872.00
2019-05-16T14:56:26.829Z,10424.00
2019-05-16T14:57:24.444Z,10836.00
2019-05-16T14:58:24.418Z,11108.00
2019-05-16T14:59:26.848Z,10596.00
2019-05-16T15:00:27.384Z,9936.00
2019-05-16T15:01:26.606Z,9224.00
2019-05-16T15:02:27.300Z,8236.00
2019-05-16T15:03:27.128Z,7496.00
2019-05-16T15:04:29.833Z,7008.00
2019-05-16T15:05:25.406Z,6656.00
2019-05-16T15:06:24.332Z,6544.00
2019-05-16T15:07:24.319Z,6664.00
2019-05-16T15:08:24.301Z,6772.00
2019-05-16T15:09:24.289Z,6796.00
2019-05-16T15:10:24.278Z,6760.00
2019-05-16T15:11:24.311Z,6684.00
2019-05-16T15:12:26.651Z,6716.00
2019-05-16T15:13:24.245Z,6868.00
2019-05-16T15:14:24.233Z,6972.00
2019-05-16T15:15:27.793Z,6900.00
2019-05-16T15:16:24.219Z,6676.00
2019-05-16T15:17:24.198Z,6480.00
2019-05-16T15:18:24.198Z,6372.00
2019-05-16T15:19:24.179Z,6324.00
2019-05-16T15:20:27.606Z,6256.00
2019-05-16T15:21:24.164Z,6148.00
2019-05-16T15:22:24.149Z,6032.00
2019-05-16T15:23:24.141Z,5952.00
2019-05-16T15:24:26.669Z,5896.00
2019-05-16T15:25:26.433Z,6032.00
2019-05-16T15:26:24.139Z,6204.00
2019-05-16T15:27:26.242Z,6400.00
2019-05-16T15:28:29.486Z,6696.00
2019-05-16T15:29:27.005Z,6900.00
2019-05-16T15:30:24.055Z,6896.00
2019-05-16T15:31:24.044Z,6760.00
2019-05-16T15:32:24.041Z,6780.00
2019-05-16T15:33:24.020Z,6644.00
2019-05-16T15:34:24.038Z,6376.00
2019-05-16T15:35:24.001Z,6312.00
2019-05-16T15:36:23.994Z,6264.00
2019-05-16T15:37:23.997Z,6140.00
2019-05-16T15:38:23.962Z,5844.00
2019-05-16T15:39:23.962Z,5628.00
2019-05-16T15:40:23.962Z,5656.00
2019-05-16T15:41:23.933Z,5812.00
2019-05-16T15:42:23.950Z,5928.00
2019-05-16T15:43:23.908Z,6032.00
2019-05-16T15:44:23.897Z,6112.00
2019-05-16T15:45:35.673Z,6192.00
2019-05-16T15:46:26.577Z,6372.00
2019-05-16T15:47:23.883Z,6568.00
2019-05-16T15:48:23.851Z,6440.00
2019-05-16T15:49:26.408Z,6024.00
2019-05-16T15:50:23.834Z,5568.00
2019-05-16T15:51:23.819Z,5280.00
2019-05-16T15:52:23.844Z,5128.00
2019-05-16T15:53:23.813Z,5084.00
2019-05-16T15:54:23.789Z,5044.00
2019-05-16T15:55:23.777Z,4928.00
2019-05-16T15:56:23.771Z,4792.00
2019-05-16T15:57:23.769Z,4676.00
2019-05-16T15:58:23.743Z,4576.00
2019-05-16T15:59:23.735Z,4432.00
2019-05-16T16:00:23.733Z,4352.00
2019-05-16T16:01:23.711Z,4332.00
2019-05-16T16:02:23.709Z,4408.00
2019-05-16T16:03:23.713Z,4612.00
2019-05-16T16:04:23.679Z,4828.00
2019-05-16T16:05:23.670Z,5040.00
2019-05-16T16:06:23.655Z,5080.00
2019-05-16T16:07:23.677Z,5004.00
2019-05-16T16:08:23.633Z,4916.00
2019-05-16T16:09:23.620Z,4876.00
2019-05-16T16:10:23.622Z,4892.00
2019-05-16T16:11:23.602Z,4924.00
2019-05-16T16:12:23.623Z,4992.00
2019-05-16T16:13:23.593Z,5028.00
2019-05-16T16:14:23.566Z,4976.00
2019-05-16T16:15:23.555Z,4864.00